Time;durP1;ratioP1;P1;durP2;ratioP2;P2;SDS_P1;SDS_P2;PMS_P1;PMS_P2;Temp;Humidity;BMP_temperature;BMP_pressure;BME280_temperature;BME280_humidity;BME280_pressure;Samples;Min_cycle;Max_cycle;Signal;HPM_P1;HPM_P2
2021/12/22 00:00:18;;;;;;;0.35;0.35;;;;;;;22.81;5.32;101230.75;5136214;27;20056;-71
2021/12/22 00:02:48;;;;;;;0.30;0.30;;;;;;;22.82;5.41;101224.25;5137986;27;20035;-71
2021/12/22 00:05:16;;;;;;;0.30;0.30;;;;;;;22.85;5.48;101225.63;5135245;27;20051;-71
2021/12/22 00:07:41;;;;;;;0.30;0.30;;;;;;;22.83;5.41;101227.78;5117044;27;20114;-71
2021/12/22 00:10:07;;;;;;;0.35;0.35;;;;;;;22.82;5.35;101226.16;5135449;27;20047;-71
2021/12/22 00:12:32;;;;;;;0.30;0.30;;;;;;;22.84;5.33;101229.44;5134951;27;20071;-71
2021/12/22 00:14:58;;;;;;;0.38;0.38;;;;;;;22.81;5.38;101235.38;5134791;27;20027;-71
2021/12/22 00:17:23;;;;;;;0.20;0.20;;;;;;;22.82;5.30;101234.31;5135213;27;20027;-72
2021/12/22 00:19:49;;;;;;;0.30;0.30;;;;;;;22.79;5.28;101232.09;5135342;27;20526;-71
2021/12/22 00:22:14;;;;;;;0.28;0.28;;;;;;;22.80;5.34;101233.72;5135139;27;20023;-71
2021/12/22 00:24:40;;;;;;;0.40;0.40;;;;;;;22.81;5.33;101238.94;5135367;27;20343;-72
2021/12/22 00:27:06;;;;;;;0.30;0.30;;;;;;;22.79;5.29;101237.53;5134894;27;20015;-72
2021/12/22 00:29:31;;;;;;;0.22;0.22;;;;;;;22.79;5.31;101232.91;5135003;27;20047;-72
2021/12/22 00:32:09;;;;;;;0.40;0.40;;;;;;;22.81;5.26;101240.84;5134592;27;20442;-72
2021/12/22 00:34:35;;;;;;;0.43;0.30;;;;;;;22.81;5.37;101240.84;5134759;27;20156;-72
2021/12/22 00:37:00;;;;;;;0.43;0.40;;;;;;;22.77;5.28;101236.97;5134859;27;20047;-72
2021/12/22 00:39:26;;;;;;;0.30;0.30;;;;;;;22.78;5.42;101239.41;5134625;27;20425;-72
2021/12/22 00:41:51;;;;;;;0.38;0.38;;;;;;;22.77;5.34;101245.13;5128953;27;20028;-72
2021/12/22 00:44:16;;;;;;;0.40;0.40;;;;;;;22.76;5.37;101252.47;5113929;28;20053;-72
2021/12/22 00:46:42;;;;;;;0.20;0.20;;;;;;;22.76;5.34;101255.19;5114193;28;20028;-71
2021/12/22 00:49:07;;;;;;;0.40;0.40;;;;;;;22.76;5.39;101254.38;5114321;28;20019;-72
2021/12/22 00:51:33;;;;;;;0.30;0.30;;;;;;;22.77;5.14;101261.50;5113918;28;20047;-71
2021/12/22 00:53:58;;;;;;;0.30;0.30;;;;;;;22.76;5.33;101254.38;5113603;28;20509;-71
2021/12/22 00:56:23;;;;;;;0.30;0.30;;;;;;;22.76;5.29;101254.38;5096113;28;20081;-71
2021/12/22 00:58:49;;;;;;;0.20;0.20;;;;;;;22.76;5.28;101265.28;5114341;28;20019;-71
2021/12/22 01:01:14;;;;;;;0.30;0.30;;;;;;;22.77;5.22;101266.94;5114175;28;20470;-71
2021/12/22 01:03:40;;;;;;;0.30;0.30;;;;;;;22.73;5.27;101261.13;5114223;28;20032;-71
2021/12/22 01:06:05;;;;;;;0.30;0.30;;;;;;;22.73;5.22;101265.75;5118000;28;20027;-71
2021/12/22 01:08:30;;;;;;;0.30;0.30;;;;;;;22.73;5.29;101266.59;5118429;28;20035;-72
2021/12/22 01:10:56;;;;;;;0.30;0.30;;;;;;;22.76;5.25;101271.53;5138667;27;20039;-71
2021/12/22 01:13:21;;;;;;;0.30;0.30;;;;;;;22.75;5.32;101274.50;5138671;27;20027;-71
2021/12/22 01:15:47;;;;;;;0.20;0.20;;;;;;;22.75;5.31;101269.91;5138305;27;20473;-71
2021/12/22 01:18:26;;;;;;;0.40;0.40;;;;;;;22.75;5.24;101269.91;5138693;27;20066;-71
2021/12/22 01:21:35;;;;;;;0.30;0.30;;;;;;;22.73;5.31;101273.94;5138320;27;20088;-71
2021/12/22 01:24:02;;;;;;;0.35;0.35;;;;;;;22.73;5.26;101273.94;5134989;27;20122;-71
2021/12/22 01:26:28;;;;;;;0.30;0.30;;;;;;;22.75;5.33;101275.34;5138540;27;20046;-71
2021/12/22 01:28:54;;;;;;;0.50;0.50;;;;;;;22.75;5.19;101271.78;5138430;27;20019;-72
2021/12/22 01:31:19;;;;;;;0.30;0.30;;;;;;;22.69;5.24;101277.16;5138425;27;20416;-72
2021/12/22 01:33:45;;;;;;;0.40;0.40;;;;;;;22.72;5.26;101272.31;5138201;27;20023;-72
2021/12/22 01:36:10;;;;;;;0.20;0.20;;;;;;;22.74;5.09;101272.88;5138769;27;20024;-72
2021/12/22 01:38:36;;;;;;;0.40;0.40;;;;;;;22.71;5.29;101265.19;5137866;27;20046;-71
2021/12/22 01:41:01;;;;;;;0.30;0.30;;;;;;;22.73;5.25;101265.75;5138161;27;20038;-71
2021/12/22 01:43:27;;;;;;;0.40;0.40;;;;;;;22.70;5.27;101258.94;5138063;27;20436;-71
2021/12/22 01:51:54;;;;;;;0.40;0.40;;;;;;;22.69;5.29;101266.25;5138250;27;20091;-71
2021/12/22 01:54:19;;;;;;;0.20;0.20;;;;;;;22.69;5.18;101260.81;5137410;27;20406;-71
2021/12/22 01:56:45;;;;;;;0.40;0.40;;;;;;;22.68;5.51;101264.63;5137749;27;20072;-71
2021/12/22 01:59:10;;;;;;;0.30;0.30;;;;;;;22.69;5.35;101258.06;5137815;27;20255;-71
2021/12/22 02:01:35;;;;;;;0.32;0.32;;;;;;;22.67;5.31;101260.22;5137325;27;20027;-71
2021/12/22 02:04:02;;;;;;;0.43;0.40;;;;;;;22.67;5.22;101265.69;5118974;27;20055;-72
2021/12/22 02:06:28;;;;;;;0.40;0.40;;;;;;;22.69;5.33;101263.53;5137737;27;20043;-72
2021/12/22 02:08:54;;;;;;;0.30;0.30;;;;;;;22.69;5.29;101260.00;5136898;27;20042;-71
2021/12/22 02:11:19;;;;;;;0.30;0.30;;;;;;;;;;5137149;27;20023;-71
2021/12/22 02:13:49;;;;;;;0.40;0.40;;;;;;;22.69;5.32;101260.81;5137977;27;20115;-71
2021/12/22 02:16:16;;;;;;;0.50;0.35;;;;;;;22.69;5.16;101260.81;5136872;27;20092;-71
2021/12/22 02:18:47;;;;;;;0.28;0.28;;;;;;;22.65;5.23;101259.66;5137385;27;20102;-71
2021/12/22 02:21:13;;;;;;;0.40;0.40;;;;;;;22.67;5.41;101262.97;5137474;27;20072;-71
2021/12/22 02:23:39;;;;;;;0.20;0.20;;;;;;;22.65;5.26;101258.84;5137355;27;20031;-71
2021/12/22 02:26:11;;;;;;;0.38;0.38;;;;;;;;;;5118795;27;20388;-71
2021/12/22 02:28:40;;;;;;;0.38;0.38;;;;;;;22.63;5.38;101261.81;5137337;27;20027;-71
2021/12/22 02:31:05;;;;;;;0.38;0.38;;;;;;;22.66;5.21;101266.78;5138509;27;20043;-71
2021/12/22 02:33:39;;;;;;;0.30;0.30;;;;;;;22.64;5.23;101263.44;5137910;27;20031;-71
2021/12/22 02:38:35;;;;;;;0.30;0.30;;;;;;;22.67;5.25;101267.59;5136782;27;20185;-71
2021/12/22 02:41:00;;;;;;;0.50;0.50;;;;;;;22.64;5.23;101268.88;5137133;27;20023;-71
2021/12/22 02:43:31;;;;;;;0.30;0.30;;;;;;;22.66;5.22;101264.03;5154202;27;20022;-71
2021/12/22 02:45:56;;;;;;;0.20;0.20;;;;;;;22.63;5.13;101259.09;5157703;27;20426;-71
2021/12/22 02:48:23;;;;;;;0.38;0.38;;;;;;;22.65;5.21;101258.84;5157348;27;20026;-71
2021/12/22 02:50:49;;;;;;;0.38;0.32;;;;;;;22.65;5.19;101259.66;5157207;27;20417;-71
2021/12/22 02:53:16;;;;;;;0.25;0.25;;;;;;;22.66;5.21;101264.03;5157986;27;20034;-72
2021/12/22 02:55:53;;;;;;;0.30;0.30;;;;;;;22.61;5.19;101252.22;5157057;27;20459;-72
2021/12/22 02:58:31;;;;;;;0.30;0.30;;;;;;;22.66;5.14;101261.31;5157346;27;20455;-71
2021/12/22 03:05:57;;;;;;;0.30;0.30;;;;;;;22.62;5.22;101254.69;5157509;27;20038;-71
2021/12/22 03:08:22;;;;;;;0.40;0.40;;;;;;;22.63;5.09;101264.53;5156850;27;20453;-72
2021/12/22 03:10:51;;;;;;;0.30;0.30;;;;;;;22.63;5.08;101256.38;5156610;27;20035;-72
2021/12/22 03:13:16;;;;;;;0.50;0.50;;;;;;;;;;5157045;27;20078;-72
2021/12/22 03:15:42;;;;;;;0.50;0.50;;;;;;;22.63;5.05;101264.53;5156981;27;20027;-72
2021/12/22 03:18:07;;;;;;;0.40;0.40;;;;;;;22.62;5.13;101262.88;5156811;27;20137;-71
2021/12/22 03:20:33;;;;;;;0.40;0.40;;;;;;;22.62;5.14;101259.31;5156612;27;20437;-71
2021/12/22 03:22:58;;;;;;;0.40;0.40;;;;;;;22.61;5.10;101266.69;5156849;27;20034;-71
2021/12/22 03:25:27;;;;;;;0.30;0.30;;;;;;;22.66;5.11;101266.78;5156854;27;20046;-71
2021/12/22 03:27:52;;;;;;;0.30;0.30;;;;;;;;;;5155897;27;20023;-71
2021/12/22 03:30:22;;;;;;;0.30;0.30;;;;;;;22.68;5.05;101261.91;5156438;27;20528;-71
2021/12/22 03:32:49;;;;;;;0.30;0.30;;;;;;;22.71;5.28;101262.47;5156556;27;20460;-71
2021/12/22 03:35:19;;;;;;;0.30;0.30;;;;;;;22.72;5.24;101264.13;5156491;27;20022;-71
2021/12/22 03:37:46;;;;;;;0.30;0.30;;;;;;;22.72;5.24;101269.59;5138949;27;20095;-71
2021/12/22 03:40:11;;;;;;;1.80;0.32;;;;;;;22.68;5.19;101264.63;5156571;27;20046;-71
2021/12/22 03:42:36;;;;;;;0.40;0.40;;;;;;;22.71;5.24;101267.91;5147153;27;20026;-71
2021/12/22 03:45:03;;;;;;;0.25;0.25;;;;;;;22.67;5.20;101276.59;5135816;27;20353;-72
2021/12/22 03:47:28;;;;;;;0.30;0.30;;;;;;;22.71;5.34;101276.09;5117261;27;20023;-72
2021/12/22 03:49:54;;;;;;;0.30;0.30;;;;;;;22.69;5.20;101276.34;5135311;27;20487;-72
2021/12/22 03:52:19;;;;;;;0.45;0.45;;;;;;;22.68;5.27;101275.53;5135617;27;20027;-72
2021/12/22 03:54:45;;;;;;;0.40;0.40;;;;;;;22.69;5.15;101282.59;5135504;27;20019;-71
2021/12/22 03:57:10;;;;;;;0.40;0.40;;;;;;;22.68;5.21;101286.41;5135223;27;20527;-72
2021/12/22 03:59:35;;;;;;;0.40;0.40;;;;;;;22.69;5.22;101288.06;5135439;27;20038;-72
2021/12/22 04:02:01;;;;;;;0.38;0.38;;;;;;;22.67;5.22;101286.66;5135420;27;20029;-71
2021/12/22 04:04:26;;;;;;;0.20;0.20;;;;;;;22.69;5.24;101295.41;5135793;27;20027;-71
2021/12/22 04:06:51;;;;;;;0.32;0.32;;;;;;;22.72;5.26;101286.75;5134959;27;20030;-72
2021/12/22 04:09:17;;;;;;;0.22;0.22;;;;;;;22.74;5.27;101290.03;5134776;27;20104;-71
2021/12/22 04:11:43;;;;;;;0.45;0.45;;;;;;;22.74;5.29;101292.78;5134894;27;20046;-71
2021/12/22 04:14:10;;;;;;;0.40;0.40;;;;;;;22.77;5.21;101292.28;5134998;27;20039;-71
2021/12/22 04:16:35;;;;;;;0.40;0.40;;;;;;;22.81;5.42;101300.78;5134705;27;20027;-71
2021/12/22 04:19:01;;;;;;;0.38;0.38;;;;;;;22.83;5.46;101291.28;5134884;27;20042;-71
2021/12/22 04:21:26;;;;;;;0.30;0.30;;;;;;;22.87;5.30;101295.19;5135367;27;20446;-71
2021/12/22 04:23:52;;;;;;;0.45;0.40;;;;;;;22.89;5.36;101292.22;5134883;27;20476;-71
2021/12/22 04:26:17;;;;;;;0.40;0.40;;;;;;;22.90;5.39;101296.56;5134954;27;20024;-71
2021/12/22 04:28:43;;;;;;;0.28;0.28;;;;;;;22.93;5.36;101296.06;5134564;27;20034;-71
2021/12/22 04:31:08;;;;;;;0.40;0.40;;;;;;;22.93;5.38;101287.09;5135045;27;20027;-71
2021/12/22 04:33:34;;;;;;;0.98;0.30;;;;;;;23.01;5.23;101303.84;5135050;27;20019;-71
2021/12/22 04:35:59;;;;;;;0.85;0.60;;;;;;;23.01;5.47;101294.84;5135035;27;20453;-71
2021/12/22 04:38:24;;;;;;;2.13;0.68;;;;;;;23.03;5.49;101298.97;5134843;27;20046;-71
2021/12/22 04:40:50;;;;;;;1.15;0.80;;;;;;;23.06;5.32;101301.22;5134385;27;20370;-71
2021/12/22 04:43:15;;;;;;;0.85;0.60;;;;;;;23.08;5.45;101306.44;5148192;27;20046;-71
2021/12/22 04:45:41;;;;;;;0.57;0.52;;;;;;;23.10;5.31;101293.38;5155309;27;20019;-71
2021/12/22 04:48:06;;;;;;;0.90;0.70;;;;;;;23.12;5.39;101291.22;5154890;27;20035;-71
2021/12/22 04:50:33;;;;;;;1.65;0.80;;;;;;;23.15;5.39;101289.91;5155149;27;20022;-71
2021/12/22 04:53:12;;;;;;;0.63;0.50;;;;;;;23.15;5.45;101289.91;5154812;27;20022;-70
2021/12/22 04:55:37;;;;;;;1.10;0.70;;;;;;;23.19;5.36;101288.31;5138373;27;20501;-71
2021/12/22 04:58:03;;;;;;;0.98;0.80;;;;;;;23.21;5.43;101297.06;5154709;27;20062;-71
2021/12/22 05:00:32;;;;;;;1.17;0.60;;;;;;;23.22;5.41;101290.56;5155884;27;20022;-71
2021/12/22 05:02:57;;;;;;;0.60;0.60;;;;;;;23.26;5.30;101291.69;5155002;27;20046;-71
2021/12/22 05:05:23;;;;;;;0.47;0.47;;;;;;;23.26;5.56;101291.69;5154672;27;20469;-71
2021/12/22 05:07:48;;;;;;;0.50;0.50;;;;;;;23.28;5.60;101286.81;5154790;27;20029;-70
2021/12/22 05:10:17;;;;;;;0.47;0.45;;;;;;;23.31;5.60;101297.22;5154760;27;20114;-70
2021/12/22 05:12:43;;;;;;;0.40;0.40;;;;;;;23.32;5.62;101295.31;5154895;27;20030;-70
2021/12/22 05:15:09;;;;;;;1.70;0.40;;;;;;;23.32;5.44;101301.63;5154794;27;20027;-70
2021/12/22 05:20:09;;;;;;;0.40;0.40;;;;;;;23.37;5.58;101296.22;5155005;27;20453;-71
2021/12/22 05:22:35;;;;;;;0.30;0.30;;;;;;;23.38;5.51;101305.22;5155076;27;20029;-71
2021/12/22 05:25:02;;;;;;;1.08;0.40;;;;;;;23.39;5.44;101307.72;5136092;27;20031;-71
2021/12/22 05:27:28;;;;;;;0.32;0.32;;;;;;;23.41;5.66;101305.56;5154959;27;20026;-70
2021/12/22 05:29:53;;;;;;;1.83;0.40;;;;;;;23.41;5.44;101302.81;5154711;27;20360;-70
2021/12/22 05:32:20;;;;;;;0.40;0.40;;;;;;;23.44;5.87;101304.25;5154593;27;20026;-70
2021/12/22 05:34:45;;;;;;;0.60;0.50;;;;;;;23.44;5.59;101305.06;5154636;27;20027;-70
2021/12/22 05:37:11;;;;;;;0.45;0.45;;;;;;;23.46;5.72;101309.41;5154562;27;20525;-71
2021/12/22 05:39:36;;;;;;;0.50;0.50;;;;;;;23.48;5.53;101304.56;5154801;27;20030;-71
2021/12/22 05:42:02;;;;;;;0.75;0.60;;;;;;;23.48;5.47;101299.91;5152775;27;20088;-71
2021/12/22 05:44:27;;;;;;;0.65;0.40;;;;;;;23.49;5.74;101307.03;5134127;28;20027;-71
2021/12/22 05:46:53;;;;;;;0.40;0.40;;;;;;;23.51;5.41;101309.47;5133944;28;20031;-71
2021/12/22 05:49:18;;;;;;;0.20;0.20;;;;;;;23.52;5.49;101311.16;5134069;27;20035;-71
2021/12/22 05:51:44;;;;;;;0.50;0.50;;;;;;;23.53;5.65;101307.34;5137646;27;20072;-70
2021/12/22 05:54:09;;;;;;;0.40;0.40;;;;;;;23.49;5.36;101312.50;5138353;27;20368;-71
2021/12/22 05:56:35;;;;;;;0.40;0.40;;;;;;;23.56;5.59;101312.28;5146027;27;20023;-71
2021/12/22 05:59:00;;;;;;;0.40;0.40;;;;;;;23.57;5.48;101308.50;5147876;27;20027;-71
2021/12/22 06:01:27;;;;;;;0.60;0.50;;;;;;;23.57;5.73;101308.50;5148903;27;20023;-71
2021/12/22 06:03:52;;;;;;;0.50;0.50;;;;;;;23.57;5.78;101313.94;5150579;27;20440;-71
2021/12/22 06:06:17;;;;;;;1.08;0.68;;;;;;;23.59;5.58;101312.63;5147637;27;20051;-71
2021/12/22 06:08:43;;;;;;;0.52;0.43;;;;;;;23.61;5.75;101313.19;5146924;27;20019;-71
2021/12/22 06:11:08;;;;;;;0.73;0.68;;;;;;;23.64;5.65;101320.03;5145982;27;20068;-71
2021/12/22 06:13:34;;;;;;;1.02;0.60;;;;;;;23.63;5.60;101319.22;5137769;27;20507;-71
2021/12/22 06:15:59;;;;;;;1.85;0.90;;;;;;;23.64;5.73;101314.59;5137782;27;20034;-71
2021/12/22 06:18:26;;;;;;;1.63;0.93;;;;;;;23.68;5.65;101317.63;5137990;27;20092;-71
2021/12/22 06:20:51;;;;;;;1.25;0.90;;;;;;;23.68;5.54;101325.81;5137352;27;20137;-71
2021/12/22 06:23:16;;;;;;;0.52;0.52;;;;;;;23.68;5.65;101315.75;5136938;27;20392;-70
2021/12/22 06:25:42;;;;;;;1.63;0.80;;;;;;;23.70;5.59;101315.47;5137395;27;20019;-71
2021/12/22 06:28:07;;;;;;;2.30;1.00;;;;;;;23.70;5.87;101323.66;5136824;27;20485;-71
2021/12/22 06:30:33;;;;;;;4.45;1.65;;;;;;;23.56;5.93;101323.19;5137063;27;20038;-71
2021/12/22 06:32:58;;;;;;;3.63;1.23;;;;;;;23.73;6.19;101323.16;5137200;27;20369;-71
2021/12/22 06:35:23;;;;;;;2.38;1.13;;;;;;;23.73;6.06;101329.47;5137321;27;20023;-72
2021/12/22 06:37:49;;;;;;;3.92;1.30;;;;;;;23.75;6.00;101327.31;5137279;27;20023;-72
2021/12/22 06:40:14;;;;;;;1.45;1.20;;;;;;;23.80;6.21;101324.63;5118799;27;20465;-71
2021/12/22 06:42:40;;;;;;;13.55;4.97;;;;;;;23.85;6.36;101321.16;5143401;27;20445;-71
2021/12/22 06:45:07;;;;;;;19.05;7.13;;;;;;;23.86;6.26;101327.47;5157654;27;20029;-72
2021/12/22 06:47:32;;;;;;;12.98;4.90;;;;;;;23.88;6.12;101326.13;5158294;27;20023;-72
2021/12/22 06:49:57;;;;;;;4.63;2.40;;;;;;;23.88;6.09;101326.13;5156967;27;20053;-72
2021/12/22 06:52:23;;;;;;;9.90;4.88;;;;;;;23.90;6.35;101329.41;5156744;27;20019;-72
2021/12/22 06:54:48;;;;;;;5.30;2.28;;;;;;;23.93;6.11;101322.63;5138710;27;20034;-72
2021/12/22 06:57:18;;;;;;;3.33;1.80;;;;;;;23.95;6.46;101323.19;5156718;27;20064;-70
2021/12/22 06:59:43;;;;;;;3.60;1.65;;;;;;;24.00;6.42;101334.19;5157196;27;20091;-71
2021/12/22 07:02:09;;;;;;;2.53;1.40;;;;;;;24.04;6.48;101329.84;5155560;27;20418;-71
2021/12/22 07:04:34;;;;;;;1.52;0.90;;;;;;;24.05;6.55;101326.06;5138667;27;20050;-71
2021/12/22 07:07:00;;;;;;;2.33;1.25;;;;;;;24.06;6.28;101332.31;5156970;27;20027;-71
2021/12/22 07:09:26;;;;;;;1.85;1.08;;;;;;;24.05;6.39;101334.25;5156791;27;20162;-71
2021/12/22 07:11:51;;;;;;;2.90;1.08;;;;;;;24.06;6.48;101344.09;5156351;27;20038;-71
2021/12/22 07:14:17;;;;;;;2.50;1.00;;;;;;;24.09;6.39;101349.03;5155968;27;20027;-71
2021/12/22 07:16:42;;;;;;;1.30;0.90;;;;;;;24.10;6.47;101342.50;5156967;27;20019;-72
2021/12/22 07:19:08;;;;;;;2.55;1.00;;;;;;;24.06;6.36;101344.09;5137686;27;20059;-73
2021/12/22 07:21:35;;;;;;;1.58;1.17;;;;;;;24.11;6.65;101352.34;5156522;27;20103;-73
2021/12/22 07:24:01;;;;;;;1.42;0.93;;;;;;;24.21;6.70;101345.34;5157411;27;20023;-69
2021/12/22 07:26:27;;;;;;;1.25;0.90;;;;;;;24.22;6.62;101347.00;5156994;27;20022;-68
2021/12/22 07:28:52;;;;;;;2.30;1.10;;;;;;;24.23;6.99;101348.63;5156549;27;20050;-69
2021/12/22 07:31:17;;;;;;;6.22;1.30;;;;;;;24.18;6.30;101352.97;5156475;27;20031;-69
2021/12/22 07:33:59;;;;;;;3.50;1.58;;;;;;;24.22;6.40;101349.72;5156854;27;20406;-69
2021/12/22 07:36:25;;;;;;;1.95;1.10;;;;;;;24.25;6.33;101346.47;5156297;27;20026;-69
2021/12/22 07:39:01;;;;;;;2.97;1.17;;;;;;;24.30;6.53;101352.00;5156706;27;20034;-69
2021/12/22 07:41:27;;;;;;;10.57;1.10;;;;;;;24.29;6.76;101342.16;5156938;27;20022;-69
2021/12/22 07:43:52;;;;;;;2.33;0.77;;;;;;;24.32;6.55;101347.13;5140181;27;20480;-69
2021/12/22 07:46:18;;;;;;;0.77;0.68;;;;;;;24.35;6.35;101339.22;5135422;27;20035;-69
2021/12/22 07:48:43;;;;;;;3.92;0.90;;;;;;;24.36;6.47;101337.31;5135667;27;20031;-69
2021/12/22 07:51:09;;;;;;;1.25;1.00;;;;;;;24.35;6.70;101347.44;5117373;27;20453;-69
2021/12/22 07:53:34;;;;;;;1.45;0.90;;;;;;;24.43;6.89;101342.59;5135233;27;20045;-68
2021/12/22 07:56:00;;;;;;;2.20;1.05;;;;;;;24.44;6.32;101339.59;5135236;27;20020;-69
2021/12/22 07:58:25;;;;;;;1.90;1.00;;;;;;;24.48;6.18;101346.19;5135510;27;20038;-69
2021/12/22 08:00:51;;;;;;;1.25;0.90;;;;;;;24.50;6.70;101341.28;5135800;27;20023;-70
2021/12/22 08:03:16;;;;;;;1.40;0.90;;;;;;;24.51;6.62;101351.13;5135426;27;20454;-70
2021/12/22 08:05:45;;;;;;;1.45;0.82;;;;;;;24.49;6.60;101347.84;5135786;27;20035;-67
2021/12/22 08:08:10;;;;;;;1.20;0.80;;;;;;;24.52;6.59;101346.50;5135113;27;20027;-69
2021/12/22 08:10:36;;;;;;;2.10;1.10;;;;;;;24.50;6.62;101346.75;5134726;27;20401;-69
2021/12/22 08:13:01;;;;;;;1.25;0.90;;;;;;;24.49;6.29;101336.91;5135076;27;20106;-70
2021/12/22 08:15:27;;;;;;;1.77;0.73;;;;;;;24.57;6.36;101332.09;5135120;27;20023;-70
2021/12/22 08:17:53;;;;;;;1.13;0.70;;;;;;;24.55;6.31;101344.09;5134549;27;20075;-69
2021/12/22 08:20:19;;;;;;;0.55;0.55;;;;;;;24.59;6.44;101329.91;5134929;27;20035;-71
2021/12/22 08:22:44;;;;;;;2.22;0.70;;;;;;;24.59;6.24;101335.38;5116713;27;20030;-70
2021/12/22 08:25:10;;;;;;;1.00;0.80;;;;;;;24.56;6.46;101323.09;5134738;27;20031;-70
2021/12/22 08:27:35;;;;;;;1.95;0.70;;;;;;;24.65;6.78;101339.84;5134426;27;20042;-71
2021/12/22 08:30:00;;;;;;;0.70;0.70;;;;;;;24.67;7.02;101324.81;5134805;27;20030;-69
2021/12/22 08:32:26;;;;;;;37.92;13.23;;;;;;;24.69;6.83;101330.84;5135510;27;20087;-73
2021/12/22 08:34:56;;;;;;;26.08;9.60;;;;;;;24.70;6.63;101321.56;5135026;27;20027;-71
2021/12/22 08:40:07;;;;;;;13.80;6.22;;;;;;;24.70;6.88;101313.38;5119352;27;20038;-69
2021/12/22 08:42:32;;;;;;;44.42;17.00;;;;;;;24.71;6.56;101315.00;5137832;27;20087;-69
2021/12/22 08:44:58;;;;;;;15.77;6.90;;;;;;;24.73;6.60;101312.00;5155431;27;20377;-70
2021/12/22 08:47:24;;;;;;;29.55;11.98;;;;;;;24.69;6.63;101292.56;5155094;27;20023;-70
2021/12/22 08:49:49;;;;;;;219.73;86.70;;;;;;;24.73;6.75;101292.88;5154991;27;20015;-70
2021/12/22 08:52:15;;;;;;;140.15;59.05;;;;;;;24.69;6.35;101327.28;5154907;27;20033;-71
2021/12/22 08:54:40;;;;;;;39.25;16.70;;;;;;;24.76;6.63;101302.47;5154669;27;20035;-71
2021/12/22 08:57:06;;;;;;;54.70;22.70;;;;;;;24.71;6.89;101311.44;5155270;27;20095;-70
2021/12/22 08:59:32;;;;;;;65.20;27.25;;;;;;;24.74;6.57;101308.19;5156269;27;20019;-71
2021/12/22 09:01:57;;;;;;;23.48;9.50;;;;;;;24.73;6.36;101312.00;5156670;27;20422;-69
2021/12/22 09:04:22;;;;;;;22.23;7.93;;;;;;;24.77;6.51;101301.38;5137085;27;20061;-68
2021/12/22 09:06:48;;;;;;;14.23;5.30;;;;;;;24.76;6.49;101319.69;5155159;27;20034;-68
2021/12/22 09:09:14;;;;;;;8.70;4.07;;;;;;;24.77;6.40;101309.56;5155532;27;20043;-69
2021/12/22 09:11:40;;;;;;;14.27;6.18;;;;;;;24.74;6.70;101321.88;5137104;27;20086;-68
2021/12/22 09:14:06;;;;;;;6.50;3.08;;;;;;;24.71;6.61;101316.91;5157278;27;20448;-68
2021/12/22 09:16:35;;;;;;;6.60;2.97;;;;;;;24.70;6.26;101312.56;5156447;27;20122;-68
2021/12/22 09:19:01;;;;;;;5.63;2.50;;;;;;;24.66;6.45;101314.13;5155945;27;20019;-72
2021/12/22 09:21:26;;;;;;;6.28;2.72;;;;;;;24.72;6.38;101313.09;5154923;27;20068;-68
2021/12/22 09:23:51;;;;;;;5.57;2.35;;;;;;;24.72;6.43;101311.19;5154676;27;20460;-69
2021/12/22 09:26:17;;;;;;;8.88;2.60;;;;;;;24.71;6.66;101303.25;5157556;27;20022;-69
2021/12/22 09:28:42;;;;;;;4.57;2.50;;;;;;;24.72;6.45;101313.09;5158646;27;20422;-67
2021/12/22 09:31:09;;;;;;;5.07;2.20;;;;;;;24.74;6.48;101306.28;5158995;27;20126;-69
2021/12/22 09:33:35;;;;;;;3.63;1.90;;;;;;;24.72;6.40;101310.38;5159685;27;20015;-67
2021/12/22 09:36:00;;;;;;;4.45;2.30;;;;;;;24.73;6.43;101309.28;5140808;27;20030;-69
2021/12/22 09:38:26;;;;;;;4.22;1.83;;;;;;;24.73;6.67;101304.66;5158549;27;20167;-68
2021/12/22 09:40:51;;;;;;;3.38;1.75;;;;;;;24.74;6.24;101305.47;5158638;27;20019;-68
2021/12/22 09:43:17;;;;;;;4.22;1.90;;;;;;;24.74;6.41;101300.00;5132168;27;20039;-68
2021/12/22 09:45:46;;;;;;;2.90;1.45;;;;;;;24.61;6.38;101305.88;5137869;27;20047;-68
2021/12/22 09:53:11;;;;;;;2.35;1.02;;;;;;;24.76;6.46;101306.03;5137469;27;20035;-68
2021/12/22 09:55:36;;;;;;;1.98;0.95;;;;;;;24.78;6.37;101298.38;5118970;27;20030;-68
2021/12/22 09:58:05;;;;;;;1.50;1.02;;;;;;;24.79;6.17;101300.03;5136958;27;20346;-67
2021/12/22 10:00:32;;;;;;;1.20;0.80;;;;;;;24.80;6.55;101292.66;5118341;27;20027;-69
2021/12/22 10:02:58;;;;;;;1.02;0.93;;;;;;;24.82;6.38;101295.94;5137774;27;20027;-71
2021/12/22 10:05:23;;;;;;;0.95;0.73;;;;;;;24.78;6.56;101287.44;5119538;27;20525;-70
2021/12/22 10:08:13;;;;;;;2.85;1.38;;;;;;;24.84;6.40;101291.88;5137261;27;20034;-69
2021/12/22 10:10:47;;;;;;;1.83;1.00;;;;;;;24.81;6.38;101299.78;5136564;27;20121;-70
2021/12/22 10:13:20;;;;;;;1.42;0.80;;;;;;;24.74;6.13;101289.06;5137945;27;20023;-71
2021/12/22 10:15:46;;;;;;;1.42;0.80;;;;;;;24.79;6.17;101291.03;5137294;27;20111;-70
2021/12/22 10:18:16;;;;;;;1.15;0.75;;;;;;;24.77;6.23;101285.81;5137211;27;20109;-69
2021/12/22 10:20:42;;;;;;;1.88;1.00;;;;;;;24.79;6.29;101286.38;5137861;27;20029;-69
2021/12/22 10:23:21;;;;;;;2.35;1.10;;;;;;;24.85;6.44;101279.88;5137717;27;20098;-69
2021/12/22 10:26:20;;;;;;;1.50;1.00;;;;;;;24.96;6.42;101279.91;5138357;27;20027;-69
2021/12/22 10:28:47;;;;;;;2.50;1.00;;;;;;;24.88;6.48;101275.78;5055696;28;20098;-70
2021/12/22 10:31:12;;;;;;;3.80;1.27;;;;;;;24.86;6.28;101276.03;5060153;28;20037;-71
2021/12/22 10:33:39;;;;;;;1.70;1.25;;;;;;;24.86;6.27;101277.94;5064845;28;20108;-70
2021/12/22 10:36:10;;;;;;;3.72;1.45;;;;;;;24.85;6.50;101279.03;5058162;28;20035;-68
2021/12/22 10:38:35;;;;;;;2.08;1.15;;;;;;;24.89;6.56;101280.16;5057752;28;20040;-70
2021/12/22 10:41:03;;;;;;;7.35;4.63;;;;;;;24.86;6.46;101276.03;5041119;28;20036;-70
2021/12/22 10:43:30;;;;;;;76.95;31.73;;;;;;;24.81;6.69;101278.72;5041336;28;20033;-69
2021/12/22 10:45:59;;;;;;;20.45;8.80;;;;;;;24.77;6.71;101274.03;5023755;28;20458;-70
2021/12/22 10:51:32;;;;;;;28.92;11.07;;;;;;;24.85;6.78;101274.41;5053083;28;20475;-71
2021/12/22 10:53:59;;;;;;;13.43;5.38;;;;;;;24.90;6.50;101279.88;5052900;28;20032;-70
2021/12/22 10:56:35;;;;;;;7.22;3.53;;;;;;;24.91;6.87;101276.06;5052992;28;20068;-71
2021/12/22 10:59:14;;;;;;;7.00;3.05;;;;;;;24.84;6.98;101272.75;5052925;28;20048;-70
2021/12/22 11:01:39;;;;;;;9.45;2.63;;;;;;;24.92;6.72;101269.53;5036819;28;20029;-70
2021/12/22 11:04:17;;;;;;;38.90;16.15;;;;;;;24.97;7.01;101270.63;5086784;27;20069;-70
2021/12/22 11:06:43;;;;;;;14.18;5.72;;;;;;;24.93;6.90;101265.69;5118517;27;20028;-70
2021/12/22 11:09:15;;;;;;;7.63;3.15;;;;;;;24.87;6.68;101268.66;5136031;27;20092;-69
2021/12/22 11:11:51;;;;;;;4.70;2.58;;;;;;;24.90;7.24;101266.22;5136091;27;20052;-71
2021/12/22 11:14:22;;;;;;;5.90;2.45;;;;;;;24.98;7.19;101272.31;5136241;27;20031;-71
2021/12/22 11:17:04;;;;;;;4.53;2.35;;;;;;;25.02;7.07;101268.75;5136529;27;20057;-70
2021/12/22 11:19:31;;;;;;;3.97;2.28;;;;;;;25.04;6.96;101271.22;5117932;27;20055;-71
2021/12/22 11:22:01;;;;;;;4.35;2.15;;;;;;;24.99;7.07;101268.47;5135923;27;20105;-72
2021/12/22 11:24:27;;;;;;;8.15;2.40;;;;;;;25.07;7.26;101277.00;5136532;27;20035;-71
2021/12/22 11:26:52;;;;;;;4.50;2.08;;;;;;;25.08;7.09;101264.97;5136193;27;20100;-71
2021/12/22 11:29:18;;;;;;;6.80;2.22;;;;;;;25.08;7.10;101272.38;5136080;27;20367;-70
2021/12/22 11:31:44;;;;;;;5.18;1.83;;;;;;;25.07;7.03;101273.44;5135686;27;20495;-71
2021/12/22 11:34:10;;;;;;;4.70;1.85;;;;;;;25.04;6.68;101272.06;5116882;27;20023;-71
2021/12/22 11:36:36;;;;;;;38.58;17.02;;;;;;;25.06;6.96;101269.06;5116615;27;20054;-70
2021/12/22 11:39:01;;;;;;;27.38;10.95;;;;;;;25.08;7.15;101266.91;5100531;27;20098;-72
2021/12/22 11:41:27;;;;;;;24.25;9.23;;;;;;;25.01;6.94;101271.75;5136031;27;20341;-71
2021/12/22 11:43:53;;;;;;;26.45;11.45;;;;;;;25.04;7.22;101266.59;5123576;27;20527;-71
2021/12/22 11:46:18;;;;;;;15.45;6.47;;;;;;;25.04;7.10;101276.69;5079739;28;20032;-69
2021/12/22 11:48:48;;;;;;;81.63;31.48;;;;;;;25.04;6.78;101271.22;5113898;28;20389;-71
2021/12/22 11:51:26;;;;;;;33.92;16.25;;;;;;;25.07;6.91;101268.78;5115176;28;20503;-71
2021/12/22 11:54:00;;;;;;;29.98;14.02;;;;;;;25.07;7.18;101259.78;5114946;28;20024;-69
2021/12/22 11:56:34;;;;;;;17.70;8.15;;;;;;;25.07;6.87;101265.25;5096442;28;20039;-69
2021/12/22 11:59:00;;;;;;;18.27;7.68;;;;;;;25.00;6.88;101267.38;5113678;28;20028;-69